sensor_id;sensor_type;location;lat;lon;timestamp;pressure;altitude;pressure_sealevel;temperature;humidity
6506;BME280;3286;49.858;8.768;2022-12-18T00:01:28;100513.78;;;-6.18;55.17
6506;BME280;3286;49.858;8.768;2022-12-18T00:03:57;100512.28;;;-6.44;56.65
6506;BME280;3286;49.858;8.768;2022-12-18T00:06:28;100516.56;;;-6.46;56.78
6506;BME280;3286;49.858;8.768;2022-12-18T00:08:58;100508.72;;;-6.26;55.69
6506;BME280;3286;49.858;8.768;2022-12-18T00:11:27;100505.72;;;-5.81;54.10
6506;BME280;3286;49.858;8.768;2022-12-18T00:13:58;100508.13;;;-6.70;56.11
6506;BME280;3286;49.858;8.768;2022-12-18T00:16:27;100500.28;;;-6.45;56.13
6506;BME280;3286;49.858;8.768;2022-12-18T00:18:56;100498.47;;;-6.29;55.34
6506;BME280;3286;49.858;8.768;2022-12-18T00:21:25;100496.84;;;-6.44;55.71
6506;BME280;3286;49.858;8.768;2022-12-18T00:23:52;100492.72;;;-6.68;56.47
6506;BME280;3286;49.858;8.768;2022-12-18T00:26:21;100511.47;;;-6.56;54.61
6506;BME280;3286;49.858;8.768;2022-12-18T00:28:48;100515.78;;;-6.61;55.13
6506;BME280;3286;49.858;8.768;2022-12-18T00:31:18;100524.53;;;-6.96;55.73
6506;BME280;3286;49.858;8.768;2022-12-18T00:33:49;100520.88;;;-6.53;55.06
6506;BME280;3286;49.858;8.768;2022-12-18T00:36:25;100532.03;;;-6.52;54.89
6506;BME280;3286;49.858;8.768;2022-12-18T00:38:55;100525.78;;;-6.17;54.49
6506;BME280;3286;49.858;8.768;2022-12-18T00:41:22;100519.13;;;-6.48;55.16
6506;BME280;3286;49.858;8.768;2022-12-18T00:44:08;100520.00;;;-6.44;55.12
6506;BME280;3286;49.858;8.768;2022-12-18T00:46:40;100526.16;;;-6.81;55.72
6506;BME280;3286;49.858;8.768;2022-12-18T00:49:07;100511.28;;;-6.28;54.79
6506;BME280;3286;49.858;8.768;2022-12-18T00:51:38;100507.91;;;-6.37;54.81
6506;BME280;3286;49.858;8.768;2022-12-18T00:54:05;100502.97;;;-6.62;55.36
6506;BME280;3286;49.858;8.768;2022-12-18T00:56:31;100504.69;;;-6.69;56.19
6506;BME280;3286;49.858;8.768;2022-12-18T00:58:58;100506.25;;;-6.45;54.11
6506;BME280;3286;49.858;8.768;2022-12-18T01:01:24;100514.97;;;-6.64;54.96
6506;BME280;3286;49.858;8.768;2022-12-18T01:03:53;100509.75;;;-6.50;54.05
6506;BME280;3286;49.858;8.768;2022-12-18T01:06:19;100536.38;;;-6.64;54.43
6506;BME280;3286;49.858;8.768;2022-12-18T01:08:46;100529.06;;;-6.00;53.02
6506;BME280;3286;49.858;8.768;2022-12-18T01:11:14;100526.19;;;-6.82;55.33
6506;BME280;3286;49.858;8.768;2022-12-18T01:13:42;100534.72;;;-6.77;55.11
6506;BME280;3286;49.858;8.768;2022-12-18T01:16:13;100516.63;;;-6.52;53.78
6506;BME280;3286;49.858;8.768;2022-12-18T01:18:41;100527.00;;;-6.76;54.09
6506;BME280;3286;49.858;8.768;2022-12-18T01:21:11;100526.25;;;-6.92;54.61
6506;BME280;3286;49.858;8.768;2022-12-18T01:23:39;100539.16;;;-7.14;55.25
6506;BME280;3286;49.858;8.768;2022-12-18T01:26:07;100530.59;;;-7.13;54.85
6506;BME280;3286;49.858;8.768;2022-12-18T01:28:38;100520.41;;;-7.39;55.44
6506;BME280;3286;49.858;8.768;2022-12-18T01:31:11;100531.53;;;-7.29;54.93
6506;BME280;3286;49.858;8.768;2022-12-18T01:33:39;100531.47;;;-7.17;54.63
6506;BME280;3286;49.858;8.768;2022-12-18T01:36:06;100536.53;;;-7.01;54.03
6506;BME280;3286;49.858;8.768;2022-12-18T01:38:35;100524.50;;;-6.87;53.61
6506;BME280;3286;49.858;8.768;2022-12-18T01:41:02;100522.00;;;-7.02;54.32
6506;BME280;3286;49.858;8.768;2022-12-18T01:46:27;100553.72;;;-7.13;54.71
6506;BME280;3286;49.858;8.768;2022-12-18T01:49:00;100550.34;;;-7.38;55.54
6506;BME280;3286;49.858;8.768;2022-12-18T01:51:29;100549.44;;;-7.21;54.97
6506;BME280;3286;49.858;8.768;2022-12-18T01:53:59;100558.00;;;-7.19;54.65
6506;BME280;3286;49.858;8.768;2022-12-18T01:56:27;100552.88;;;-7.25;54.26
6506;BME280;3286;49.858;8.768;2022-12-18T01:58:59;100549.50;;;-7.42;55.84
6506;BME280;3286;49.858;8.768;2022-12-18T02:01:31;100549.41;;;-7.10;54.33
6506;BME280;3286;49.858;8.768;2022-12-18T02:04:19;100543.34;;;-6.85;53.66
6506;BME280;3286;49.858;8.768;2022-12-18T02:06:54;100547.75;;;-7.18;54.87
6506;BME280;3286;49.858;8.768;2022-12-18T02:09:32;100538.13;;;-6.71;53.07
6506;BME280;3286;49.858;8.768;2022-12-18T02:12:05;100541.75;;;-7.12;53.88
6506;BME280;3286;49.858;8.768;2022-12-18T02:14:42;100541.84;;;-7.63;55.35
6506;BME280;3286;49.858;8.768;2022-12-18T02:17:14;100540.13;;;-7.83;55.12
6506;BME280;3286;49.858;8.768;2022-12-18T02:19:55;100546.13;;;-7.65;54.24
6506;BME280;3286;49.858;8.768;2022-12-18T02:22:29;100544.38;;;-7.51;54.50
6506;BME280;3286;49.858;8.768;2022-12-18T02:25:13;100528.97;;;-7.37;53.54
6506;BME280;3286;49.858;8.768;2022-12-18T02:27:46;100536.63;;;-7.26;53.18
6506;BME280;3286;49.858;8.768;2022-12-18T02:30:16;100527.13;;;-7.01;52.36
6506;BME280;3286;49.858;8.768;2022-12-18T02:32:46;100522.13;;;-7.41;53.06
6506;BME280;3286;49.858;8.768;2022-12-18T02:35:26;100516.22;;;-7.73;52.09
6506;BME280;3286;49.858;8.768;2022-12-18T02:37:54;100513.63;;;-7.88;53.61
6506;BME280;3286;49.858;8.768;2022-12-18T02:40:24;100511.06;;;-8.22;54.85
6506;BME280;3286;49.858;8.768;2022-12-18T02:43:02;100519.63;;;-8.09;54.55
6506;BME280;3286;49.858;8.768;2022-12-18T02:45:29;100514.44;;;-7.55;53.57
6506;BME280;3286;49.858;8.768;2022-12-18T02:47:55;100511.06;;;-7.79;54.23
6506;BME280;3286;49.858;8.768;2022-12-18T02:50:26;100501.59;;;-7.57;53.15
6506;BME280;3286;49.858;8.768;2022-12-18T02:53:06;100509.31;;;-7.55;52.77
6506;BME280;3286;49.858;8.768;2022-12-18T02:55:54;100510.25;;;-8.06;53.97
6506;BME280;3286;49.858;8.768;2022-12-18T02:58:33;100506.78;;;-7.67;52.96
6506;BME280;3286;49.858;8.768;2022-12-18T03:01:10;100500.84;;;-8.30;54.09
6506;BME280;3286;49.858;8.768;2022-12-18T03:03:44;100499.09;;;-7.74;53.06
6506;BME280;3286;49.858;8.768;2022-12-18T03:06:18;100505.94;;;-7.74;53.13
6506;BME280;3286;49.858;8.768;2022-12-18T03:08:51;100505.94;;;-8.25;54.85
6506;BME280;3286;49.858;8.768;2022-12-18T03:11:26;100502.53;;;-7.72;53.52
6506;BME280;3286;49.858;8.768;2022-12-18T03:14:11;100519.63;;;-7.88;53.39
6506;BME280;3286;49.858;8.768;2022-12-18T03:16:41;100524.66;;;-7.39;53.11
6506;BME280;3286;49.858;8.768;2022-12-18T03:19:13;100537.56;;;-8.23;54.77
6506;BME280;3286;49.858;8.768;2022-12-18T03:21:44;100536.72;;;-7.91;54.36
6506;BME280;3286;49.858;8.768;2022-12-18T03:24:15;100534.16;;;-7.96;53.50
6506;BME280;3286;49.858;8.768;2022-12-18T03:26:45;100526.47;;;-8.11;54.23
6506;BME280;3286;49.858;8.768;2022-12-18T03:29:17;100524.75;;;-7.67;54.04
6506;BME280;3286;49.858;8.768;2022-12-18T03:31:53;100529.88;;;-7.64;55.01
6506;BME280;3286;49.858;8.768;2022-12-18T03:34:28;100532.44;;;-7.78;55.08
6506;BME280;3286;49.858;8.768;2022-12-18T03:36:58;100527.28;;;-8.48;56.71
6506;BME280;3286;49.858;8.768;2022-12-18T03:39:24;100522.16;;;-7.63;55.32
6506;BME280;3286;49.858;8.768;2022-12-18T03:41:56;100520.50;;;-7.82;55.10
6506;BME280;3286;49.858;8.768;2022-12-18T03:44:35;100522.16;;;-7.69;54.39
6506;BME280;3286;49.858;8.768;2022-12-18T03:47:07;100520.47;;;-7.54;53.54
6506;BME280;3286;49.858;8.768;2022-12-18T03:49:41;100511.00;;;-7.40;52.67
6506;BME280;3286;49.858;8.768;2022-12-18T03:52:16;100508.47;;;-7.62;52.64
6506;BME280;3286;49.858;8.768;2022-12-18T03:54:46;100501.69;;;-8.31;54.31
6506;BME280;3286;49.858;8.768;2022-12-18T03:57:15;100494.81;;;-7.72;52.53
6506;BME280;3286;49.858;8.768;2022-12-18T03:59:46;100486.28;;;-7.88;52.40
6506;BME280;3286;49.858;8.768;2022-12-18T04:02:16;100489.69;;;-7.82;53.06
6506;BME280;3286;49.858;8.768;2022-12-18T04:04:52;100492.28;;;-7.95;53.21
6506;BME280;3286;49.858;8.768;2022-12-18T04:07:22;100503.41;;;-8.13;53.58
6506;BME280;3286;49.858;8.768;2022-12-18T04:09:50;100502.53;;;-8.32;54.16
6506;BME280;3286;49.858;8.768;2022-12-18T04:12:20;100499.97;;;-8.20;52.87
6506;BME280;3286;49.858;8.768;2022-12-18T04:14:48;100498.25;;;-8.29;53.96
6506;BME280;3286;49.858;8.768;2022-12-18T04:17:18;100500.81;;;-8.19;53.69
6506;BME280;3286;49.858;8.768;2022-12-18T04:20:02;100505.94;;;-8.39;53.85
6506;BME280;3286;49.858;8.768;2022-12-18T04:22:29;100509.38;;;-8.39;53.44
6506;BME280;3286;49.858;8.768;2022-12-18T04:24:55;100505.09;;;-8.18;53.45
6506;BME280;3286;49.858;8.768;2022-12-18T04:27:22;100504.25;;;-8.05;52.24
6506;BME280;3286;49.858;8.768;2022-12-18T04:29:50;100501.69;;;-8.09;52.93
6506;BME280;3286;49.858;8.768;2022-12-18T04:32:18;100510.25;;;-8.09;53.07
6506;BME280;3286;49.858;8.768;2022-12-18T04:34:47;100500.81;;;-7.97;53.38
6506;BME280;3286;49.858;8.768;2022-12-18T04:37:14;100493.13;;;-8.19;53.85
6506;BME280;3286;49.858;8.768;2022-12-18T04:39:41;100493.16;;;-8.24;53.76
6506;BME280;3286;49.858;8.768;2022-12-18T04:42:07;100496.53;;;-8.00;53.25
6506;BME280;3286;49.858;8.768;2022-12-18T04:44:35;100493.09;;;-7.60;52.97
6506;BME280;3286;49.858;8.768;2022-12-18T04:47:05;100491.44;;;-8.09;54.63
6506;BME280;3286;49.858;8.768;2022-12-18T04:49:31;100493.13;;;-8.08;54.59
6506;BME280;3286;49.858;8.768;2022-12-18T04:51:58;100482.88;;;-8.22;55.15
6506;BME280;3286;49.858;8.768;2022-12-18T04:54:32;100484.59;;;-7.89;54.05
6506;BME280;3286;49.858;8.768;2022-12-18T04:57:01;100481.16;;;-7.94;54.26
6506;BME280;3286;49.858;8.768;2022-12-18T04:59:29;100480.28;;;-7.74;54.41
6506;BME280;3286;49.858;8.768;2022-12-18T05:02:02;100484.44;;;-7.34;53.42
6506;BME280;3286;49.858;8.768;2022-12-18T05:04:31;100488.78;;;-7.58;54.00
6506;BME280;3286;49.858;8.768;2022-12-18T05:06:58;100493.97;;;-7.86;54.89
6506;BME280;3286;49.858;8.768;2022-12-18T05:09:29;100495.56;;;-7.26;53.34
6506;BME280;3286;49.858;8.768;2022-12-18T05:11:59;100495.66;;;-7.76;54.30
6506;BME280;3286;49.858;8.768;2022-12-18T05:14:26;100504.22;;;-7.77;54.70
6506;BME280;3286;49.858;8.768;2022-12-18T05:16:54;100500.81;;;-8.05;55.60
6506;BME280;3286;49.858;8.768;2022-12-18T05:19:21;100499.03;;;-7.52;54.54
6506;BME280;3286;49.858;8.768;2022-12-18T05:21:50;100505.94;;;-7.85;54.75
6506;BME280;3286;49.858;8.768;2022-12-18T05:24:17;100503.38;;;-8.38;56.50
6506;BME280;3286;49.858;8.768;2022-12-18T05:26:46;100505.13;;;-8.15;55.96
6506;BME280;3286;49.858;8.768;2022-12-18T05:29:16;100511.94;;;-7.84;56.44
6506;BME280;3286;49.858;8.768;2022-12-18T05:31:42;100515.25;;;-7.40;55.07
6506;BME280;3286;49.858;8.768;2022-12-18T05:34:09;100514.34;;;-7.22;54.47
6506;BME280;3286;49.858;8.768;2022-12-18T05:36:35;100522.19;;;-7.81;55.23
6506;BME280;3286;49.858;8.768;2022-12-18T05:39:03;100518.69;;;-7.45;54.83
6506;BME280;3286;49.858;8.768;2022-12-18T05:41:32;100509.88;;;-6.77;53.52
6506;BME280;3286;49.858;8.768;2022-12-18T05:44:00;100512.63;;;-7.11;54.23
6506;BME280;3286;49.858;8.768;2022-12-18T05:46:27;100511.03;;;-7.60;55.93
6506;BME280;3286;49.858;8.768;2022-12-18T05:48:54;100511.91;;;-7.58;55.78
6506;BME280;3286;49.858;8.768;2022-12-18T05:51:23;100503.28;;;-7.45;55.21
6506;BME280;3286;49.858;8.768;2022-12-18T05:53:49;100492.13;;;-7.30;53.81
6506;BME280;3286;49.858;8.768;2022-12-18T05:56:21;100501.63;;;-7.50;54.11
6506;BME280;3286;49.858;8.768;2022-12-18T05:58:52;100491.31;;;-7.41;54.49
6506;BME280;3286;49.858;8.768;2022-12-18T06:01:23;100493.66;;;-6.85;53.40
6506;BME280;3286;49.858;8.768;2022-12-18T06:03:52;100498.94;;;-7.19;54.51
6506;BME280;3286;49.858;8.768;2022-12-18T06:06:24;100488.66;;;-7.15;53.97
6506;BME280;3286;49.858;8.768;2022-12-18T06:08:56;100489.50;;;-7.16;54.16
6506;BME280;3286;49.858;8.768;2022-12-18T06:11:25;100490.41;;;-7.26;55.18
6506;BME280;3286;49.858;8.768;2022-12-18T06:13:54;100497.28;;;-7.34;54.74
6506;BME280;3286;49.858;8.768;2022-12-18T06:16:21;100497.97;;;-6.89;54.23
6506;BME280;3286;49.858;8.768;2022-12-18T06:18:52;100502.41;;;-7.33;53.67
6506;BME280;3286;49.858;8.768;2022-12-18T06:21:24;100505.88;;;-7.43;53.68
6506;BME280;3286;49.858;8.768;2022-12-18T06:23:50;100502.41;;;-7.34;53.54
6506;BME280;3286;49.858;8.768;2022-12-18T06:26:19;100511.00;;;-7.43;53.55
6506;BME280;3286;49.858;8.768;2022-12-18T06:28:47;100517.72;;;-7.05;52.31
6506;BME280;3286;49.858;8.768;2022-12-18T06:31:16;100522.09;;;-7.29;52.88
6506;BME280;3286;49.858;8.768;2022-12-18T06:33:46;100521.31;;;-7.57;53.63
6506;BME280;3286;49.858;8.768;2022-12-18T06:36:13;100525.56;;;-7.48;53.16
6506;BME280;3286;49.858;8.768;2022-12-18T06:38:43;100529.88;;;-7.53;53.74
6506;BME280;3286;49.858;8.768;2022-12-18T06:41:12;100541.00;;;-7.82;54.74
6506;BME280;3286;49.858;8.768;2022-12-18T06:43:38;100547.78;;;-7.36;54.25
6506;BME280;3286;49.858;8.768;2022-12-18T06:46:08;100546.13;;;-7.67;54.48
6506;BME280;3286;49.858;8.768;2022-12-18T06:48:36;100537.50;;;-7.27;53.66
6506;BME280;3286;49.858;8.768;2022-12-18T06:51:05;100543.47;;;-7.27;53.18
6506;BME280;3286;49.858;8.768;2022-12-18T06:53:32;100546.94;;;-7.43;53.63
6506;BME280;3286;49.858;8.768;2022-12-18T06:56:00;100554.66;;;-7.57;54.06
6506;BME280;3286;49.858;8.768;2022-12-18T06:58:29;100549.47;;;-7.23;53.42
6506;BME280;3286;49.858;8.768;2022-12-18T07:00:59;100552.00;;;-7.21;53.25
6506;BME280;3286;49.858;8.768;2022-12-18T07:03:34;100555.53;;;-7.55;53.90
6506;BME280;3286;49.858;8.768;2022-12-18T07:06:00;100550.34;;;-7.43;54.02
6506;BME280;3286;49.858;8.768;2022-12-18T07:08:28;100549.53;;;-7.49;54.02
6506;BME280;3286;49.858;8.768;2022-12-18T07:10:58;100546.94;;;-7.37;54.25
6506;BME280;3286;49.858;8.768;2022-12-18T07:13:24;100544.25;;;-7.00;53.25
6506;BME280;3286;49.858;8.768;2022-12-18T07:15:53;100552.81;;;-7.02;53.19
6506;BME280;3286;49.858;8.768;2022-12-18T07:18:20;100564.03;;;-7.31;54.47
6506;BME280;3286;49.858;8.768;2022-12-18T07:20:50;100558.88;;;-7.25;54.23
6506;BME280;3286;49.858;8.768;2022-12-18T07:23:18;100558.00;;;-7.18;54.07
6506;BME280;3286;49.858;8.768;2022-12-18T07:25:46;100561.47;;;-7.33;54.58
6506;BME280;3286;49.858;8.768;2022-12-18T07:28:13;100561.28;;;-6.75;53.33
6506;BME280;3286;49.858;8.768;2022-12-18T07:30:40;100564.75;;;-6.86;53.14
6506;BME280;3286;49.858;8.768;2022-12-18T07:33:06;100556.22;;;-7.00;53.40
6506;BME280;3286;49.858;8.768;2022-12-18T07:35:33;100561.38;;;-7.00;52.71
6506;BME280;3286;49.858;8.768;2022-12-18T07:38:03;100562.25;;;-7.10;52.62
6506;BME280;3286;49.858;8.768;2022-12-18T07:40:29;100549.38;;;-6.96;52.11
6506;BME280;3286;49.858;8.768;2022-12-18T07:42:56;100550.16;;;-6.77;52.89
6506;BME280;3286;49.858;8.768;2022-12-18T07:45:23;100558.03;;;-7.24;53.38
6506;BME280;3286;49.858;8.768;2022-12-18T07:47:49;100552.72;;;-6.79;53.04
6506;BME280;3286;49.858;8.768;2022-12-18T07:50:19;100557.91;;;-6.84;52.93
6506;BME280;3286;49.858;8.768;2022-12-18T07:52:45;100561.47;;;-7.36;54.21
6506;BME280;3286;49.858;8.768;2022-12-18T07:55:16;100557.81;;;-6.66;53.06
6506;BME280;3286;49.858;8.768;2022-12-18T07:57:45;100567.41;;;-7.15;54.97
6506;BME280;3286;49.858;8.768;2022-12-18T08:00:14;100559.53;;;-6.70;54.19
6506;BME280;3286;49.858;8.768;2022-12-18T08:02:41;100562.06;;;-6.64;54.05
6506;BME280;3286;49.858;8.768;2022-12-18T08:05:10;100557.66;;;-6.42;53.66
6506;BME280;3286;49.858;8.768;2022-12-18T08:07:39;100559.41;;;-6.44;53.94
6506;BME280;3286;49.858;8.768;2022-12-18T08:10:10;100569.28;;;-5.85;53.03
6506;BME280;3286;49.858;8.768;2022-12-18T08:12:39;100577.31;;;-6.25;52.63
6506;BME280;3286;49.858;8.768;2022-12-18T08:15:06;100578.91;;;-6.13;52.43
6506;BME280;3286;49.858;8.768;2022-12-18T08:17:39;100583.06;;;-5.97;51.98
6506;BME280;3286;49.858;8.768;2022-12-18T08:20:06;100585.91;;;-6.31;53.22
6506;BME280;3286;49.858;8.768;2022-12-18T08:22:34;100577.47;;;-6.51;55.04
6506;BME280;3286;49.858;8.768;2022-12-18T08:25:05;100580.72;;;-6.23;54.53
6506;BME280;3286;49.858;8.768;2022-12-18T08:27:32;100580.94;;;-5.46;53.18
6506;BME280;3286;49.858;8.768;2022-12-18T08:30:06;100581.72;;;-5.40;53.50
6506;BME280;3286;49.858;8.768;2022-12-18T08:32:33;100580.59;;;-5.12;53.10
6506;BME280;3286;49.858;8.768;2022-12-18T08:35:05;100577.03;;;-4.99;51.83
6506;BME280;3286;49.858;8.768;2022-12-18T08:37:33;100571.44;;;-4.63;51.60
6506;BME280;3286;49.858;8.768;2022-12-18T08:39:59;100565.91;;;-4.35;50.80
6506;BME280;3286;49.858;8.768;2022-12-18T08:42:28;100571.63;;;-4.14;50.56
6506;BME280;3286;49.858;8.768;2022-12-18T08:45:14;100575.19;;;-4.23;50.85
6506;BME280;3286;49.858;8.768;2022-12-18T08:47:41;100567.16;;;-4.03;50.96
6506;BME280;3286;49.858;8.768;2022-12-18T08:50:09;100564.00;;;-4.22;51.50
6506;BME280;3286;49.858;8.768;2022-12-18T08:52:40;100554.41;;;-4.78;54.09
6506;BME280;3286;49.858;8.768;2022-12-18T08:55:13;100559.50;;;-4.72;53.58
6506;BME280;3286;49.858;8.768;2022-12-18T08:57:42;100547.09;;;-5.09;54.57
6506;BME280;3286;49.858;8.768;2022-12-18T09:00:11;100543.25;;;-4.77;54.29
6506;BME280;3286;49.858;8.768;2022-12-18T09:02:42;100546.38;;;-5.22;56.20
6506;BME280;3286;49.858;8.768;2022-12-18T09:05:14;100546.72;;;-4.18;54.01
6506;BME280;3286;49.858;8.768;2022-12-18T09:07:40;100553.84;;;-4.34;55.12
6506;BME280;3286;49.858;8.768;2022-12-18T09:10:07;100548.56;;;-3.72;53.07
6506;BME280;3286;49.858;8.768;2022-12-18T09:12:34;100544.50;;;-3.37;51.97
6506;BME280;3286;49.858;8.768;2022-12-18T09:15:00;100539.03;;;-3.20;52.60
6506;BME280;3286;49.858;8.768;2022-12-18T09:17:28;100536.03;;;-3.95;53.89
6506;BME280;3286;49.858;8.768;2022-12-18T09:19:58;100540.38;;;-3.97;53.95
6506;BME280;3286;49.858;8.768;2022-12-18T09:22:28;100547.91;;;-3.83;54.66
6506;BME280;3286;49.858;8.768;2022-12-18T09:24:54;100564.13;;;-3.25;53.73
6506;BME280;3286;49.858;8.768;2022-12-18T09:27:21;100555.97;;;-2.62;52.15
6506;BME280;3286;49.858;8.768;2022-12-18T09:29:49;100565.56;;;-3.10;52.55
6506;BME280;3286;49.858;8.768;2022-12-18T09:32:21;100576.47;;;-2.53;52.05
6506;BME280;3286;49.858;8.768;2022-12-18T09:34:48;100567.38;;;-2.71;52.38
6506;BME280;3286;49.858;8.768;2022-12-18T09:37:16;100580.09;;;-3.53;53.51
6506;BME280;3286;49.858;8.768;2022-12-18T09:39:43;100572.25;;;-2.57;53.04
6506;BME280;3286;49.858;8.768;2022-12-18T09:42:17;100568.66;;;-2.50;51.74
6506;BME280;3286;49.858;8.768;2022-12-18T09:44:49;100562.31;;;-1.98;51.91
6506;BME280;3286;49.858;8.768;2022-12-18T09:47:18;100560.19;;;-1.81;51.38
6506;BME280;3286;49.858;8.768;2022-12-18T09:49:48;100567.41;;;-1.59;50.89
6506;BME280;3286;49.858;8.768;2022-12-18T09:52:21;100571.88;;;-1.64;50.70
6506;BME280;3286;49.858;8.768;2022-12-18T09:54:53;100565.00;;;-1.67;51.24
6506;BME280;3286;49.858;8.768;2022-12-18T09:57:23;100569.47;;;-2.88;54.31
6506;BME280;3286;49.858;8.768;2022-12-18T09:59:54;100570.69;;;-3.57;55.61
6506;BME280;3286;49.858;8.768;2022-12-18T10:02:22;100571.19;;;-3.86;57.19
6506;BME280;3286;49.858;8.768;2022-12-18T10:05:00;100580.91;;;-4.02;56.90
6506;BME280;3286;49.858;8.768;2022-12-18T10:07:35;100589.22;;;-3.83;56.64
6506;BME280;3286;49.858;8.768;2022-12-18T10:10:11;100596.69;;;-4.23;58.37
6506;BME280;3286;49.858;8.768;2022-12-18T10:12:45;100575.59;;;-3.91;57.07
6506;BME280;3286;49.858;8.768;2022-12-18T10:15:19;100583.28;;;-3.90;57.63
6506;BME280;3286;49.858;8.768;2022-12-18T10:17:53;100586.69;;;-3.86;56.65
6506;BME280;3286;49.858;8.768;2022-12-18T10:20:30;100595.25;;;-4.44;57.48
6506;BME280;3286;49.858;8.768;2022-12-18T10:23:04;100595.66;;;-4.11;57.62
6506;BME280;3286;49.858;8.768;2022-12-18T10:25:39;100583.63;;;-3.57;56.81
6506;BME280;3286;49.858;8.768;2022-12-18T10:28:12;100579.88;;;-3.92;58.46
6506;BME280;3286;49.858;8.768;2022-12-18T10:30:39;100577.84;;;-3.73;56.65
6506;BME280;3286;49.858;8.768;2022-12-18T10:33:10;100583.56;;;-3.52;55.95
6506;BME280;3286;49.858;8.768;2022-12-18T10:35:40;100563.16;;;-3.21;55.49
6506;BME280;3286;49.858;8.768;2022-12-18T10:38:23;100557.56;;;-2.97;54.35
6506;BME280;3286;49.858;8.768;2022-12-18T10:40:52;100550.91;;;-3.58;56.26
6506;BME280;3286;49.858;8.768;2022-12-18T10:43:24;100562.78;;;-4.59;58.08
6506;BME280;3286;49.858;8.768;2022-12-18T10:46:03;100575.81;;;-4.70;58.92
6506;BME280;3286;49.858;8.768;2022-12-18T10:48:33;100559.00;;;-3.76;57.66
6506;BME280;3286;49.858;8.768;2022-12-18T10:51:02;100562.34;;;-3.73;56.27
6506;BME280;3286;49.858;8.768;2022-12-18T10:53:33;100569.69;;;-4.01;57.10
6506;BME280;3286;49.858;8.768;2022-12-18T10:56:03;100564.81;;;-3.65;56.14
6506;BME280;3286;49.858;8.768;2022-12-18T10:58:32;100570.06;;;-3.70;56.46
6506;BME280;3286;49.858;8.768;2022-12-18T11:01:08;100559.69;;;-3.67;56.67
6506;BME280;3286;49.858;8.768;2022-12-18T11:03:38;100561.03;;;-3.96;57.10
6506;BME280;3286;49.858;8.768;2022-12-18T11:06:08;100560.31;;;-3.54;56.50
6506;BME280;3286;49.858;8.768;2022-12-18T11:08:36;100556.91;;;-3.56;56.91
6506;BME280;3286;49.858;8.768;2022-12-18T11:11:07;100552.16;;;-2.86;54.28
6506;BME280;3286;49.858;8.768;2022-12-18T11:13:42;100558.44;;;-2.98;55.24
6506;BME280;3286;49.858;8.768;2022-12-18T11:16:18;100560.00;;;-3.37;56.20
6506;BME280;3286;49.858;8.768;2022-12-18T11:18:45;100561.41;;;-3.17;55.89
6506;BME280;3286;49.858;8.768;2022-12-18T11:21:13;100552.00;;;-3.21;55.99
6506;BME280;3286;49.858;8.768;2022-12-18T11:23:47;100543.69;;;-3.39;56.76
6506;BME280;3286;49.858;8.768;2022-12-18T11:26:15;100545.38;;;-2.91;55.26
6506;BME280;3286;49.858;8.768;2022-12-18T11:28:44;100545.53;;;-3.97;57.58
6506;BME280;3286;49.858;8.768;2022-12-18T11:31:24;100562.25;;;-4.84;61.36
6506;BME280;3286;49.858;8.768;2022-12-18T11:33:59;100549.94;;;-3.51;58.29
6506;BME280;3286;49.858;8.768;2022-12-18T11:36:32;100548.19;;;-3.03;56.08
6506;BME280;3286;49.858;8.768;2022-12-18T11:39:08;100536.56;;;-3.26;56.35
6506;BME280;3286;49.858;8.768;2022-12-18T11:41:42;100533.75;;;-3.60;56.77
6506;BME280;3286;49.858;8.768;2022-12-18T11:44:33;100540.19;;;-3.85;57.67
6506;BME280;3286;49.858;8.768;2022-12-18T11:47:10;100550.63;;;-3.41;56.38
6506;BME280;3286;49.858;8.768;2022-12-18T11:49:39;100543.47;;;-3.75;57.70
6506;BME280;3286;49.858;8.768;2022-12-18T11:52:16;100537.81;;;-4.57;59.88
6506;BME280;3286;49.858;8.768;2022-12-18T11:54:46;100536.03;;;-3.95;59.66
6506;BME280;3286;49.858;8.768;2022-12-18T11:57:17;100536.25;;;-4.06;59.40
6506;BME280;3286;49.858;8.768;2022-12-18T11:59:54;100534.84;;;-4.27;59.26
6506;BME280;3286;49.858;8.768;2022-12-18T12:02:40;100527.03;;;-2.80;57.42
6506;BME280;3286;49.858;8.768;2022-12-18T12:05:20;100531.03;;;-3.07;57.86
6506;BME280;3286;49.858;8.768;2022-12-18T12:07:55;100525.97;;;-2.71;56.35
6506;BME280;3286;49.858;8.768;2022-12-18T12:10:41;100528.44;;;-3.53;58.09
6506;BME280;3286;49.858;8.768;2022-12-18T12:13:19;100519.72;;;-3.96;58.90
6506;BME280;3286;49.858;8.768;2022-12-18T12:15:57;100514.41;;;-2.94;56.30
6506;BME280;3286;49.858;8.768;2022-12-18T12:18:33;100528.88;;;-2.85;56.74
6506;BME280;3286;49.858;8.768;2022-12-18T12:21:08;100534.88;;;-1.36;52.16
6506;BME280;3286;49.858;8.768;2022-12-18T12:23:43;100538.38;;;-2.46;54.78
6506;BME280;3286;49.858;8.768;2022-12-18T12:26:17;100529.59;;;-2.78;55.47
6506;BME280;3286;49.858;8.768;2022-12-18T12:29:07;100525.75;;;-3.01;56.31
6506;BME280;3286;49.858;8.768;2022-12-18T12:31:51;100514.72;;;-2.68;56.03
6506;BME280;3286;49.858;8.768;2022-12-18T12:34:24;100515.31;;;-3.40;57.52
6506;BME280;3286;49.858;8.768;2022-12-18T12:37:07;100517.81;;;-2.92;56.52
6506;BME280;3286;49.858;8.768;2022-12-18T12:39:40;100515.06;;;-2.44;56.14
6506;BME280;3286;49.858;8.768;2022-12-18T12:42:14;100502.88;;;-2.03;55.36
6506;BME280;3286;49.858;8.768;2022-12-18T12:45:05;100500.00;;;-3.07;57.03
6506;BME280;3286;49.858;8.768;2022-12-18T12:47:35;100495.72;;;-2.29;55.62
6506;BME280;3286;49.858;8.768;2022-12-18T12:50:13;100500.09;;;-1.95;54.76
6506;BME280;3286;49.858;8.768;2022-12-18T12:52:43;100494.69;;;-2.58;56.10
6506;BME280;3286;49.858;8.768;2022-12-18T12:55:16;100502.91;;;-2.05;55.03
6506;BME280;3286;49.858;8.768;2022-12-18T12:57:50;100506.47;;;-2.47;55.32
6506;BME280;3286;49.858;8.768;2022-12-18T13:00:20;100491.66;;;-2.40;55.44
6506;BME280;3286;49.858;8.768;2022-12-18T13:02:51;100497.16;;;-1.81;54.88
6506;BME280;3286;49.858;8.768;2022-12-18T13:05:25;100490.50;;;-2.66;56.71
6506;BME280;3286;49.858;8.768;2022-12-18T13:07:57;100493.06;;;-2.64;57.01
6506;BME280;3286;49.858;8.768;2022-12-18T13:10:31;100490.88;;;-1.39;53.84
6506;BME280;3286;49.858;8.768;2022-12-18T13:13:01;100491.47;;;-1.96;55.66
6506;BME280;3286;49.858;8.768;2022-12-18T13:15:31;100490.63;;;-1.30;53.29
6506;BME280;3286;49.858;8.768;2022-12-18T13:18:11;100483.03;;;-1.36;54.02
6506;BME280;3286;49.858;8.768;2022-12-18T13:20:41;100488.56;;;-1.19;53.45
6506;BME280;3286;49.858;8.768;2022-12-18T13:23:26;100487.00;;;-0.94;52.36
6506;BME280;3286;49.858;8.768;2022-12-18T13:25:54;100472.69;;;-1.71;54.31
6506;BME280;3286;49.858;8.768;2022-12-18T13:28:24;100482.31;;;-1.75;55.43
6506;BME280;3286;49.858;8.768;2022-12-18T13:31:12;100479.38;;;-1.31;54.13
6506;BME280;3286;49.858;8.768;2022-12-18T13:33:42;100476.00;;;-1.01;52.72